createdAt,value
2019-04-16T00:00:42.499Z,99.90
2019-04-16T00:03:08.581Z,99.90
2019-04-16T00:05:41.647Z,99.90
2019-04-16T00:08:27.341Z,99.90
2019-04-16T00:10:46.380Z,99.90
2019-04-16T00:13:16.610Z,99.90
2019-04-16T00:15:45.042Z,99.90
2019-04-16T00:18:13.513Z,99.90
2019-04-16T00:20:46.586Z,99.90
2019-04-16T00:23:31.657Z,99.90
2019-04-16T00:26:00.108Z,99.90
2019-04-16T00:28:30.776Z,99.90
2019-04-16T00:30:59.423Z,99.90
2019-04-16T00:33:27.889Z,99.90
2019-04-16T00:35:56.392Z,99.90
2019-04-16T00:38:24.861Z,99.90
2019-04-16T00:40:53.383Z,99.90
2019-04-16T00:43:21.879Z,99.90
2019-04-16T00:45:50.326Z,99.90
2019-04-16T00:48:18.819Z,99.90
2019-04-16T00:50:47.284Z,99.90
2019-04-16T00:53:15.760Z,99.90
2019-04-16T00:55:45.077Z,99.90
2019-04-16T00:58:14.425Z,99.90
2019-04-16T01:00:42.927Z,99.90
2019-04-16T01:03:11.431Z,99.90
2019-04-16T01:05:39.983Z,99.90
2019-04-16T01:08:08.432Z,99.90
2019-04-16T01:10:36.946Z,99.90
2019-04-16T01:13:05.661Z,99.90
2019-04-16T01:15:34.246Z,99.90
2019-04-16T01:18:04.587Z,99.90
2019-04-16T01:20:33.205Z,99.90
2019-04-16T01:23:01.694Z,99.90
2019-04-16T01:25:30.168Z,99.90
2019-04-16T01:28:01.241Z,99.90
2019-04-16T01:30:47.705Z,99.90
2019-04-16T01:33:32.775Z,99.90
2019-04-16T01:36:08.871Z,99.90
2019-04-16T01:38:38.943Z,99.90
2019-04-16T01:41:09.075Z,99.90
2019-04-16T01:43:37.516Z,99.90
2019-04-16T01:46:06.173Z,99.90
2019-04-16T01:48:43.788Z,99.90
2019-04-16T01:51:15.539Z,99.90
2019-04-16T01:53:53.005Z,99.90
2019-04-16T01:56:30.245Z,99.90
2019-04-16T01:58:59.254Z,99.90
2019-04-16T02:01:30.183Z,99.90
2019-04-16T02:03:59.247Z,99.90
2019-04-16T02:06:27.687Z,99.90
2019-04-16T02:08:56.119Z,99.90
2019-04-16T02:11:24.663Z,99.90
2019-04-16T02:13:53.097Z,99.90
2019-04-16T02:16:22.382Z,99.90
2019-04-16T02:18:51.754Z,99.90
2019-04-16T02:21:20.219Z,99.90
2019-04-16T02:23:48.824Z,99.90
2019-04-16T02:26:17.343Z,99.90
2019-04-16T02:28:45.769Z,99.90
2019-04-16T02:31:16.108Z,99.90
2019-04-16T02:33:44.385Z,99.90
2019-04-16T02:36:13.041Z,99.90
2019-04-16T02:38:46.347Z,99.90
2019-04-16T02:41:12.018Z,99.90
2019-04-16T02:43:41.299Z,99.90
2019-04-16T02:46:10.077Z,99.90
2019-04-16T02:48:38.539Z,99.90
2019-04-16T02:51:20.608Z,99.90
2019-04-16T02:53:54.200Z,99.90
2019-04-16T02:56:38.825Z,99.90
2019-04-16T02:59:13.595Z,99.90
2019-04-16T03:01:44.109Z,99.90
2019-04-16T03:04:17.127Z,99.90
2019-04-16T03:06:45.592Z,99.90
2019-04-16T03:09:14.153Z,99.90
2019-04-16T03:11:42.657Z,99.90
2019-04-16T03:14:11.082Z,99.90
2019-04-16T03:16:41.168Z,99.90
2019-04-16T03:19:11.272Z,99.90
2019-04-16T03:21:39.783Z,99.90
2019-04-16T03:24:09.527Z,99.90
2019-04-16T03:26:38.480Z,99.90
2019-04-16T03:29:07.001Z,99.90
2019-04-16T03:31:35.457Z,99.90
2019-04-16T03:34:04.687Z,99.90
2019-04-16T03:36:33.324Z,99.90
2019-04-16T03:39:03.987Z,99.90
2019-04-16T03:41:32.416Z,99.90
2019-04-16T03:44:03.661Z,99.90
2019-04-16T03:46:31.029Z,99.90
2019-04-16T03:48:59.627Z,99.90
2019-04-16T03:51:28.054Z,99.90
2019-04-16T03:53:56.523Z,99.90
2019-04-16T03:56:27.630Z,99.90
2019-04-16T03:58:55.155Z,99.90
2019-04-16T04:01:23.603Z,99.90
2019-04-16T04:03:54.450Z,99.90
2019-04-16T04:06:22.257Z,99.90
2019-04-16T04:08:53.203Z,99.90
2019-04-16T04:11:20.884Z,99.90
2019-04-16T04:13:50.230Z,99.90
2019-04-16T04:16:19.570Z,99.90
2019-04-16T04:18:48.073Z,99.90
2019-04-16T04:21:20.951Z,99.90
2019-04-16T04:23:46.754Z,99.90
2019-04-16T04:26:15.204Z,99.90
2019-04-16T04:28:43.683Z,99.90
2019-04-16T04:31:12.137Z,99.90
2019-04-16T04:33:42.683Z,99.90
2019-04-16T04:36:11.163Z,99.90
2019-04-16T04:38:39.907Z,99.90
2019-04-16T04:41:08.652Z,99.90
2019-04-16T04:43:37.161Z,99.90
2019-04-16T04:46:05.973Z,99.90
2019-04-16T04:48:34.382Z,99.90
2019-04-16T04:51:06.672Z,99.90
2019-04-16T04:53:33.138Z,99.90
2019-04-16T04:56:01.572Z,99.90
2019-04-16T04:58:33.710Z,99.90
2019-04-16T05:01:02.951Z,99.90
2019-04-16T05:03:44.454Z,99.90
2019-04-16T05:06:14.077Z,99.90
2019-04-16T05:08:42.602Z,99.90
2019-04-16T05:11:12.539Z,99.90
2019-04-16T05:13:41.316Z,99.90
2019-04-16T05:16:09.749Z,99.90
2019-04-16T05:18:41.437Z,99.90
2019-04-16T05:21:08.369Z,99.90
2019-04-16T05:23:37.788Z,99.90
2019-04-16T05:26:09.620Z,99.90
2019-04-16T05:28:36.559Z,99.90
2019-04-16T05:31:05.037Z,99.90
2019-04-16T05:33:34.509Z,99.90
2019-04-16T05:36:03.650Z,99.90
2019-04-16T05:38:32.081Z,99.90
2019-04-16T05:41:12.675Z,99.90
2019-04-16T05:43:30.963Z,99.90
2019-04-16T05:45:59.776Z,99.90
2019-04-16T05:48:47.545Z,99.90
2019-04-16T05:51:16.004Z,99.90
2019-04-16T05:53:46.088Z,99.90
2019-04-16T05:56:16.185Z,99.90
2019-04-16T05:58:44.654Z,99.90
2019-04-16T06:01:17.552Z,99.90
2019-04-16T06:03:46.048Z,99.90
2019-04-16T06:06:14.512Z,99.90
2019-04-16T06:08:42.956Z,99.90
2019-04-16T06:11:11.376Z,99.90
2019-04-16T06:13:47.225Z,99.90
2019-04-16T06:16:17.285Z,99.90
2019-04-16T06:18:59.388Z,99.90
2019-04-16T06:21:29.457Z,99.90
2019-04-16T06:24:15.801Z,99.90
2019-04-16T06:27:03.694Z,99.90
2019-04-16T06:29:33.846Z,99.90
2019-04-16T06:32:19.920Z,99.90
2019-04-16T06:34:55.710Z,99.90
2019-04-16T06:37:27.441Z,99.90
2019-04-16T06:40:00.696Z,99.90
2019-04-16T06:42:29.432Z,99.90
2019-04-16T06:45:01.603Z,99.90
2019-04-16T06:47:41.804Z,99.90
2019-04-16T06:50:31.932Z,99.90
2019-04-16T06:53:19.515Z,99.90
2019-04-16T06:55:51.886Z,99.90
2019-04-16T06:58:28.429Z,99.90
2019-04-16T07:01:14.599Z,99.90
2019-04-16T07:03:47.305Z,99.90
2019-04-16T07:06:36.276Z,99.90
2019-04-16T07:09:14.259Z,99.90
2019-04-16T07:11:59.552Z,99.90
2019-04-16T07:14:28.004Z,99.90
2019-04-16T07:16:59.797Z,99.90
2019-04-16T07:19:26.735Z,99.90
2019-04-16T07:21:55.248Z,99.50
2019-04-16T07:24:24.127Z,98.20
2019-04-16T07:26:56.312Z,97.80
2019-04-16T07:29:28.441Z,98.40
2019-04-16T07:32:09.680Z,98.30
2019-04-16T07:34:45.833Z,98.00
2019-04-16T07:37:18.895Z,97.70
2019-04-16T07:39:48.977Z,95.80
2019-04-16T07:42:22.809Z,93.60
2019-04-16T07:45:12.515Z,93.50
2019-04-16T07:47:53.564Z,94.20
2019-04-16T07:50:39.957Z,94.20
2019-04-16T07:53:26.315Z,92.80
2019-04-16T07:55:56.400Z,90.50
2019-04-16T07:58:24.864Z,88.00
2019-04-16T08:00:53.295Z,83.20
2019-04-16T08:03:23.620Z,80.40
2019-04-16T08:05:51.974Z,77.40
2019-04-16T08:08:24.388Z,79.30
2019-04-16T08:10:50.669Z,72.80
2019-04-16T08:13:20.778Z,70.60
2019-04-16T08:15:49.283Z,69.30
2019-04-16T08:18:17.764Z,67.20
2019-04-16T08:21:00.002Z,63.60
2019-04-16T08:23:29.885Z,65.10
2019-04-16T08:26:03.636Z,60.00
2019-04-16T08:28:30.155Z,59.30
2019-04-16T08:30:58.663Z,59.30
2019-04-16T08:33:28.656Z,58.70
2019-04-16T08:35:57.292Z,56.20
2019-04-16T08:38:26.198Z,52.40
2019-04-16T08:40:54.770Z,51.40
2019-04-16T08:43:23.250Z,54.10
2019-04-16T08:45:51.674Z,53.70
2019-04-16T08:48:20.106Z,51.00
2019-04-16T08:50:49.467Z,51.20
2019-04-16T08:53:17.996Z,49.80
2019-04-16T08:55:46.451Z,46.20
2019-04-16T08:58:14.903Z,45.10
2019-04-16T09:00:46.647Z,43.20
2019-04-16T09:03:15.516Z,43.20
2019-04-16T09:05:44.064Z,44.50
2019-04-16T09:08:14.222Z,44.30
2019-04-16T09:10:44.613Z,41.30
2019-04-16T09:13:15.251Z,41.70
2019-04-16T09:15:44.302Z,39.80
2019-04-16T09:18:30.457Z,40.10
2019-04-16T09:20:58.944Z,40.20
2019-04-16T09:23:27.393Z,41.30
2019-04-16T09:26:13.053Z,39.70
2019-04-16T09:28:44.213Z,39.80
2019-04-16T09:31:14.317Z,39.40
2019-04-16T09:33:44.407Z,38.30
2019-04-16T09:36:20.205Z,38.00
2019-04-16T09:38:50.315Z,37.20
2019-04-16T09:41:26.066Z,37.60
2019-04-16T09:43:57.352Z,37.20
2019-04-16T09:46:49.092Z,37.20
2019-04-16T09:48:56.748Z,37.90
2019-04-16T09:51:26.242Z,36.40
2019-04-16T09:53:54.850Z,35.40
2019-04-16T09:56:29.011Z,35.10
2019-04-16T09:58:59.108Z,35.60
2019-04-16T10:01:32.140Z,34.80
2019-04-16T10:04:00.616Z,35.40
2019-04-16T10:06:29.117Z,36.80
2019-04-16T10:08:57.557Z,35.80
2019-04-16T10:11:26.001Z,36.10
2019-04-16T10:13:54.494Z,35.50
2019-04-16T10:16:24.647Z,35.00
2019-04-16T10:18:53.199Z,33.60
2019-04-16T10:21:21.628Z,34.20
2019-04-16T10:24:07.109Z,33.80
2019-04-16T10:26:35.724Z,33.40
2019-04-16T10:29:09.029Z,34.00
2019-04-16T10:31:37.559Z,33.30
2019-04-16T10:34:06.215Z,34.00
2019-04-16T10:36:37.411Z,35.40
2019-04-16T10:39:11.786Z,34.50
2019-04-16T10:41:47.403Z,34.30
2019-04-16T10:44:26.449Z,33.00
2019-04-16T10:47:12.769Z,32.60
2019-04-16T10:49:43.276Z,33.70
2019-04-16T10:52:13.430Z,34.90
2019-04-16T10:54:49.145Z,34.10
2019-04-16T10:57:38.317Z,31.80
2019-04-16T11:00:17.836Z,32.80
2019-04-16T11:02:50.936Z,32.40
2019-04-16T11:05:29.786Z,30.90
2019-04-16T11:08:04.341Z,31.00
2019-04-16T11:10:32.890Z,31.10
2019-04-16T11:13:03.056Z,30.90
2019-04-16T11:15:31.595Z,28.80
2019-04-16T11:18:00.553Z,29.20
2019-04-16T11:20:29.003Z,27.20
2019-04-16T11:22:57.592Z,27.60
2019-04-16T11:25:26.056Z,28.00
2019-04-16T11:27:54.509Z,29.50
2019-04-16T11:30:30.753Z,29.00
2019-04-16T11:32:59.901Z,28.80
2019-04-16T11:35:28.458Z,29.50
2019-04-16T11:37:56.979Z,28.20
2019-04-16T11:40:25.525Z,28.60
2019-04-16T11:42:54.042Z,28.70
2019-04-16T11:45:22.510Z,28.50
2019-04-16T11:47:51.071Z,27.80
2019-04-16T11:50:19.600Z,27.40
2019-04-16T11:52:48.088Z,27.80
2019-04-16T11:55:16.663Z,27.20
2019-04-16T11:57:45.216Z,28.30
2019-04-16T12:00:15.737Z,27.40
2019-04-16T12:02:54.733Z,27.00
2019-04-16T12:05:37.306Z,26.90
2019-04-16T12:08:07.438Z,26.60
2019-04-16T12:13:47.922Z,27.40
2019-04-16T12:16:24.387Z,27.50
2019-04-16T12:19:11.430Z,27.30
2019-04-16T12:21:41.507Z,27.30
2019-04-16T12:24:27.868Z,26.80
2019-04-16T12:26:57.996Z,26.90
2019-04-16T12:29:36.639Z,26.50
2019-04-16T12:32:06.889Z,26.40
2019-04-16T12:34:43.327Z,26.90
2019-04-16T12:37:25.227Z,26.00
2019-04-16T12:40:01.305Z,26.20
2019-04-16T12:42:42.133Z,26.70
2019-04-16T12:45:15.983Z,26.30
2019-04-16T12:47:59.094Z,26.30
2019-04-16T12:50:38.500Z,26.30
2019-04-16T12:53:11.255Z,25.40
2019-04-16T12:55:47.437Z,24.80
2019-04-16T12:58:25.571Z,25.30
2019-04-16T13:00:55.066Z,25.50
2019-04-16T13:03:37.321Z,25.60
2019-04-16T13:06:10.317Z,24.40
2019-04-16T13:08:53.693Z,23.90
2019-04-16T13:11:36.266Z,25.10
2019-04-16T13:14:15.607Z,25.10
2019-04-16T13:17:01.812Z,25.70
2019-04-16T13:19:32.491Z,26.00
2019-04-16T13:22:01.068Z,26.30
2019-04-16T13:24:46.229Z,26.20
2019-04-16T13:27:22.039Z,25.50
2019-04-16T13:29:50.484Z,24.90
2019-04-16T13:32:18.958Z,24.50
2019-04-16T13:34:47.470Z,24.00
2019-04-16T13:37:15.905Z,23.90
2019-04-16T13:40:03.812Z,24.40
2019-04-16T13:42:32.241Z,25.20
2019-04-16T13:45:17.006Z,25.40
2019-04-16T13:47:54.842Z,25.40
2019-04-16T13:50:23.320Z,25.50
2019-04-16T13:52:55.146Z,25.90
2019-04-16T13:55:38.377Z,26.90
2019-04-16T13:58:11.285Z,27.30
2019-04-16T14:00:46.760Z,26.70
2019-04-16T14:03:16.872Z,27.10
2019-04-16T14:05:45.319Z,27.50
2019-04-16T14:08:13.776Z,27.40
2019-04-16T14:10:43.330Z,27.10
2019-04-16T14:13:21.030Z,27.60
2019-04-16T14:15:49.496Z,28.50
2019-04-16T14:18:21.564Z,29.80
2019-04-16T14:20:48.104Z,29.60
2019-04-16T14:23:16.584Z,30.00
2019-04-16T14:25:45.023Z,30.90
2019-04-16T14:28:13.481Z,30.30
2019-04-16T14:30:43.584Z,31.70
2019-04-16T14:33:13.819Z,30.00
2019-04-16T14:35:42.520Z,30.40
2019-04-16T14:38:12.657Z,30.80
2019-04-16T14:40:42.393Z,30.60
2019-04-16T14:43:13.227Z,30.30
2019-04-16T14:45:57.367Z,30.20
2019-04-16T14:48:16.368Z,31.70
2019-04-16T14:50:44.828Z,31.40
2019-04-16T14:53:15.065Z,31.60
2019-04-16T14:55:59.055Z,31.90
2019-04-16T14:58:16.941Z,32.10
2019-04-16T15:00:47.051Z,31.10
2019-04-16T15:03:33.232Z,31.10
2019-04-16T15:06:12.131Z,30.70
2019-04-16T15:08:42.227Z,30.30
2019-04-16T15:11:12.316Z,30.60
2019-04-16T15:13:48.225Z,30.30
2019-04-16T15:16:22.353Z,30.90
2019-04-16T15:18:52.609Z,31.40
2019-04-16T15:21:28.660Z,31.40
2019-04-16T15:24:10.532Z,30.80
2019-04-16T15:26:43.162Z,31.80
2019-04-16T15:29:15.992Z,31.00
2019-04-16T15:32:04.343Z,31.10
2019-04-16T15:34:32.846Z,31.00
2019-04-16T15:37:03.118Z,31.40
2019-04-16T15:39:36.420Z,31.00
2019-04-16T15:42:21.155Z,31.40
2019-04-16T15:44:52.632Z,32.20
2019-04-16T15:47:32.745Z,31.20
2019-04-16T15:50:14.779Z,31.70
2019-04-16T15:52:50.963Z,32.60
2019-04-16T15:55:37.488Z,32.10
2019-04-16T15:58:19.612Z,32.60
2019-04-16T16:00:49.713Z,32.10
2019-04-16T16:03:37.942Z,32.10
2019-04-16T16:06:10.648Z,33.10
2019-04-16T16:08:52.499Z,31.90
2019-04-16T16:11:28.315Z,32.40
2019-04-16T16:14:00.469Z,32.10
2019-04-16T16:16:40.907Z,32.60
2019-04-16T16:18:57.091Z,32.50
2019-04-16T16:21:25.952Z,33.00
2019-04-16T16:23:54.468Z,32.70
2019-04-16T16:26:23.104Z,32.60
2019-04-16T16:28:52.079Z,33.30
2019-04-16T16:31:20.974Z,33.50
2019-04-16T16:33:49.417Z,32.90
2019-04-16T16:36:17.891Z,33.00
2019-04-16T16:38:48.529Z,33.00
2019-04-16T16:41:16.648Z,33.50
2019-04-16T16:43:47.504Z,33.90
2019-04-16T16:46:18.103Z,33.90
2019-04-16T16:48:47.260Z,34.10
2019-04-16T16:51:15.700Z,34.10
2019-04-16T16:53:54.794Z,33.90
2019-04-16T16:56:41.240Z,33.80
2019-04-16T16:59:27.129Z,34.20
2019-04-16T17:02:13.288Z,34.10
2019-04-16T17:04:43.354Z,34.50
2019-04-16T17:07:11.801Z,34.70
2019-04-16T17:09:40.329Z,34.90
2019-04-16T17:12:08.756Z,35.20
2019-04-16T17:14:38.075Z,35.10
2019-04-16T17:17:13.900Z,35.00
2019-04-16T17:19:36.986Z,35.30
2019-04-16T17:22:05.472Z,35.70
2019-04-16T17:24:34.132Z,35.80
2019-04-16T17:27:02.632Z,35.90
2019-04-16T17:29:31.324Z,36.00
2019-04-16T17:31:59.812Z,35.70
2019-04-16T17:34:28.537Z,35.60
2019-04-16T17:36:56.984Z,35.90
2019-04-16T17:39:44.945Z,36.20
2019-04-16T17:42:15.055Z,36.20
2019-04-16T17:45:01.305Z,36.00
2019-04-16T17:47:34.140Z,37.00
2019-04-16T17:50:07.132Z,36.90
2019-04-16T17:52:43.008Z,36.90
2019-04-16T17:55:13.106Z,37.10
2019-04-16T17:57:46.135Z,37.50
2019-04-16T18:00:28.396Z,37.50
2019-04-16T18:03:15.058Z,37.20
2019-04-16T18:06:04.624Z,37.40
2019-04-16T18:11:54.222Z,37.70
2019-04-16T18:14:41.166Z,38.10
2019-04-16T18:17:20.089Z,38.40
2019-04-16T18:19:50.168Z,38.40
2019-04-16T18:22:29.707Z,38.50
2019-04-16T18:24:59.804Z,38.30
2019-04-16T18:27:46.276Z,38.50
2019-04-16T18:30:31.644Z,38.50
2019-04-16T18:33:07.618Z,38.20
2019-04-16T18:35:38.858Z,39.10
2019-04-16T18:41:12.807Z,39.20
2019-04-16T18:43:45.808Z,39.10
2019-04-16T18:46:18.573Z,41.70
2019-04-16T18:48:48.660Z,40.30
2019-04-16T18:51:17.106Z,40.30
2019-04-16T18:53:45.574Z,40.10
2019-04-16T18:56:14.001Z,40.50
2019-04-16T18:58:42.645Z,40.60
2019-04-16T19:01:12.884Z,41.00
2019-04-16T19:03:41.434Z,40.90
2019-04-16T19:06:30.738Z,41.00
2019-04-16T19:08:59.201Z,41.40
2019-04-16T19:11:27.652Z,41.90
2019-04-16T19:13:56.264Z,41.90
2019-04-16T19:16:24.745Z,42.60
2019-04-16T19:18:53.618Z,43.10
2019-04-16T19:21:22.145Z,43.00
2019-04-16T19:23:50.619Z,44.30
2019-04-16T19:26:19.097Z,44.70
2019-04-16T19:28:47.593Z,44.00
2019-04-16T19:31:16.132Z,44.30
2019-04-16T19:33:44.604Z,44.10
2019-04-16T19:36:13.072Z,44.10
2019-04-16T19:38:41.498Z,44.00
2019-04-16T19:41:09.963Z,44.90
2019-04-16T19:43:38.462Z,44.90
2019-04-16T19:46:06.986Z,45.60
2019-04-16T19:48:36.394Z,45.90
2019-04-16T19:51:07.654Z,45.70
2019-04-16T19:53:35.302Z,45.80
2019-04-16T19:56:03.866Z,46.00
2019-04-16T19:58:32.355Z,47.40
2019-04-16T20:01:01.770Z,47.50
2019-04-16T20:03:31.247Z,47.60
2019-04-16T20:05:59.886Z,47.60
2019-04-16T20:08:34.467Z,48.10
2019-04-16T20:10:58.742Z,49.10
2019-04-16T20:13:28.925Z,49.60
2019-04-16T20:15:59.522Z,49.40
2019-04-16T20:18:30.722Z,50.00
2019-04-16T20:21:01.127Z,48.10
2019-04-16T20:23:29.752Z,49.50
2019-04-16T20:26:00.399Z,48.60
2019-04-16T20:28:28.387Z,49.10
2019-04-16T20:31:01.864Z,49.00
2019-04-16T20:33:27.016Z,49.50
2019-04-16T20:35:55.480Z,49.20
2019-04-16T20:38:28.987Z,49.00
2019-04-16T20:40:54.155Z,49.30
2019-04-16T20:43:22.600Z,49.60
2019-04-16T20:45:51.059Z,49.50
2019-04-16T20:48:19.525Z,49.50
2019-04-16T20:50:52.809Z,48.90
2019-04-16T20:53:18.242Z,48.70
2019-04-16T20:55:47.411Z,49.10
2019-04-16T20:58:16.764Z,49.10
2019-04-16T21:00:49.816Z,49.20
2019-04-16T21:03:22.379Z,49.40
2019-04-16T21:05:57.995Z,49.60
2019-04-16T21:08:24.141Z,50.20
2019-04-16T21:10:48.813Z,49.60
2019-04-16T21:13:17.240Z,49.60
2019-04-16T21:15:45.688Z,49.70
2019-04-16T21:18:14.136Z,49.50
2019-04-16T21:20:42.620Z,50.10
2019-04-16T21:23:11.145Z,50.20
2019-04-16T21:25:39.671Z,50.20
2019-04-16T21:28:12.347Z,51.10
2019-04-16T21:30:43.375Z,52.90
2019-04-16T21:33:13.003Z,53.00
2019-04-16T21:35:43.096Z,52.90
2019-04-16T21:38:13.195Z,53.00
2019-04-16T21:40:41.923Z,53.70
2019-04-16T21:43:10.484Z,54.60
2019-04-16T21:45:38.888Z,54.50
2019-04-16T21:48:07.394Z,54.80
2019-04-16T21:50:36.362Z,55.80
2019-04-16T21:53:04.808Z,56.60
2019-04-16T21:55:35.446Z,56.90
2019-04-16T21:58:03.436Z,57.90
2019-04-16T22:00:39.452Z,58.30
2019-04-16T22:03:12.467Z,58.90
2019-04-16T22:05:40.896Z,60.20
2019-04-16T22:08:09.356Z,60.40
2019-04-16T22:10:37.816Z,60.30
2019-04-16T22:13:06.344Z,59.90
2019-04-16T22:15:36.161Z,59.60
2019-04-16T22:18:07.574Z,59.60
2019-04-16T22:20:35.702Z,60.70
2019-04-16T22:23:05.949Z,60.80
2019-04-16T22:25:34.408Z,61.50
2019-04-16T22:28:02.888Z,61.80
2019-04-16T22:30:32.411Z,63.10
2019-04-16T22:33:04.956Z,63.10
2019-04-16T22:35:33.650Z,64.60
2019-04-16T22:38:03.168Z,65.20
2019-04-16T22:40:54.985Z,68.70
2019-04-16T22:43:42.641Z,70.40
2019-04-16T22:46:13.545Z,73.60
2019-04-16T22:48:55.173Z,76.50
2019-04-16T22:51:24.387Z,75.30
2019-04-16T22:53:52.831Z,78.40
2019-04-16T22:56:28.161Z,80.20
2019-04-16T22:58:53.112Z,82.60
2019-04-16T23:01:25.984Z,86.10
2019-04-16T23:03:54.549Z,89.60
2019-04-16T23:06:23.099Z,90.50
2019-04-16T23:08:51.551Z,91.00
2019-04-16T23:11:23.248Z,92.60
2019-04-16T23:13:50.164Z,93.20
2019-04-16T23:16:18.644Z,93.70
2019-04-16T23:18:49.262Z,93.90
2019-04-16T23:21:17.245Z,94.00
2019-04-16T23:23:47.726Z,95.10
2019-04-16T23:26:15.849Z,95.60
2019-04-16T23:28:44.284Z,95.90
2019-04-16T23:31:12.751Z,96.20
2019-04-16T23:33:41.180Z,96.10
2019-04-16T23:36:09.640Z,96.60
2019-04-16T23:38:38.102Z,96.40
2019-04-16T23:41:06.539Z,97.10
2019-04-16T23:43:45.709Z,97.30
2019-04-16T23:46:34.611Z,97.40
2019-04-16T23:49:03.950Z,97.80
2019-04-16T23:51:34.063Z,98.50
2019-04-16T23:54:20.379Z,99.00
2019-04-16T23:56:53.897Z,99.50
2019-04-16T23:59:26.769Z,99.90
